createdAt,value
2018-07-19T04:54:07.849Z,4.42
2018-07-19T04:55:14.821Z,4.67
2018-07-19T04:56:27.004Z,4.50
2018-07-19T04:57:33.667Z,5.35
2018-07-19T04:58:40.568Z,5.03
2018-07-19T04:59:47.036Z,4.50
2018-07-19T05:00:54.611Z,5.10
2018-07-19T05:02:00.593Z,4.10
2018-07-19T05:03:06.743Z,5.72
2018-07-19T05:04:13.686Z,4.30
2018-07-19T05:05:19.935Z,4.50
2018-07-19T05:06:26.887Z,4.83
2018-07-19T05:07:34.026Z,4.17
2018-07-19T05:08:40.020Z,4.43
2018-07-19T05:09:48.186Z,4.13
2018-07-19T05:10:54.433Z,4.40
2018-07-19T05:12:00.561Z,4.10
2018-07-19T05:13:07.485Z,4.00
2018-07-19T05:14:14.139Z,3.93
2018-07-19T05:15:20.320Z,4.43
2018-07-19T05:16:29.646Z,4.30
2018-07-19T05:17:36.656Z,4.50
2018-07-19T05:18:48.328Z,4.00
2018-07-19T05:20:17.186Z,3.83
2018-07-19T05:21:29.296Z,4.47
2018-07-19T05:22:35.608Z,4.57
2018-07-19T05:23:42.002Z,4.33
2018-07-19T05:24:47.956Z,3.30
2018-07-19T05:25:54.016Z,3.93
2018-07-19T05:27:01.094Z,4.20
2018-07-19T05:28:07.164Z,3.70
2018-07-19T05:29:13.284Z,4.40
2018-07-19T05:30:19.645Z,3.80
2018-07-19T05:31:25.799Z,3.57
2018-07-19T05:32:31.789Z,3.87
2018-07-19T05:33:37.762Z,4.27
2018-07-19T05:34:44.016Z,3.73
2018-07-19T05:35:50.222Z,4.67
2018-07-19T05:36:59.248Z,3.60
2018-07-19T05:38:06.892Z,4.07
2018-07-19T05:39:14.489Z,4.77
2018-07-19T05:40:20.960Z,4.20
2018-07-19T05:41:27.010Z,4.00
2018-07-19T05:42:33.298Z,4.50
2018-07-19T05:43:39.420Z,4.10
2018-07-19T05:44:46.408Z,5.00
2018-07-19T05:45:52.678Z,4.30
2018-07-19T05:47:00.997Z,3.80
2018-07-19T05:48:07.188Z,3.70
2018-07-19T05:49:13.288Z,3.87
2018-07-19T05:50:19.468Z,4.33
2018-07-19T05:51:26.796Z,3.70
2018-07-19T05:52:33.838Z,4.30
2018-07-19T05:53:39.795Z,4.20
2018-07-19T05:54:46.088Z,4.40
2018-07-19T05:55:54.160Z,3.90
2018-07-19T05:57:09.590Z,4.20
2018-07-19T05:58:20.862Z,3.90
2018-07-19T05:59:29.666Z,3.90
2018-07-19T06:00:36.884Z,3.80
2018-07-19T06:01:44.068Z,4.17
2018-07-19T06:02:53.977Z,3.67
2018-07-19T06:04:01.234Z,3.97
2018-07-19T06:05:14.225Z,3.90
2018-07-19T06:06:21.308Z,3.67
2018-07-19T06:07:29.028Z,3.50
2018-07-19T06:08:35.193Z,3.80
2018-07-19T06:09:41.219Z,3.97
2018-07-19T06:10:47.383Z,3.73
2018-07-19T06:11:53.567Z,3.93
2018-07-19T06:13:06.104Z,4.00
2018-07-19T06:14:13.772Z,4.13
2018-07-19T06:15:20.025Z,4.90
2018-07-19T06:16:26.258Z,3.80
2018-07-19T06:17:33.922Z,4.83
2018-07-19T06:18:40.327Z,3.77
2018-07-19T06:19:46.420Z,3.80
2018-07-19T06:20:54.998Z,3.73
2018-07-19T06:22:02.486Z,3.50
2018-07-19T06:23:10.142Z,4.10
2018-07-19T06:24:17.796Z,3.40
2018-07-19T06:25:23.876Z,4.30
2018-07-19T06:26:30.596Z,3.77
2018-07-19T06:27:36.805Z,4.30
2018-07-19T06:28:43.675Z,3.47
2018-07-19T06:29:49.884Z,3.60
2018-07-19T06:30:56.951Z,3.33
2018-07-19T06:32:05.782Z,3.63
2018-07-19T06:33:12.146Z,3.60
2018-07-19T06:34:18.762Z,3.33
2018-07-19T06:35:26.067Z,3.33
2018-07-19T06:36:32.348Z,3.40
2018-07-19T06:37:38.858Z,3.60
2018-07-19T06:38:47.056Z,3.27
2018-07-19T06:39:53.478Z,3.57
2018-07-19T06:40:59.830Z,3.93
2018-07-19T06:42:07.660Z,3.93
2018-07-19T06:43:14.788Z,4.17
2018-07-19T06:44:21.430Z,3.73
2018-07-19T06:45:29.456Z,4.37
2018-07-19T06:46:36.319Z,4.17
2018-07-19T06:47:42.936Z,3.93
2018-07-19T06:48:50.048Z,4.63
2018-07-19T06:49:59.522Z,3.90
2018-07-19T06:51:05.880Z,3.93
2018-07-19T06:52:13.691Z,3.73
2018-07-19T06:53:20.522Z,3.63
2018-07-19T06:54:26.736Z,4.00
2018-07-19T06:55:33.061Z,4.07
2018-07-19T06:56:39.430Z,4.00
2018-07-19T06:57:47.734Z,4.00
2018-07-19T06:58:54.608Z,3.70
2018-07-19T07:00:01.681Z,3.80
2018-07-19T07:01:08.060Z,3.60
2018-07-19T07:02:14.324Z,3.97
2018-07-19T07:03:22.153Z,3.60
2018-07-19T07:04:31.088Z,3.87
2018-07-19T07:05:37.358Z,4.03
2018-07-19T07:06:43.618Z,3.47
2018-07-19T07:07:49.614Z,3.63
2018-07-19T07:08:55.733Z,3.50
2018-07-19T07:10:01.968Z,3.80
2018-07-19T07:11:08.294Z,3.43
2018-07-19T07:12:16.152Z,3.23
2018-07-19T07:13:22.364Z,3.77
2018-07-19T07:14:30.150Z,3.67
2018-07-19T07:15:36.426Z,4.00
2018-07-19T07:16:44.446Z,3.43
2018-07-19T07:17:50.967Z,3.90
2018-07-19T07:18:58.266Z,4.27
2018-07-19T07:20:06.460Z,3.60
2018-07-19T07:21:12.760Z,3.40
2018-07-19T07:22:18.951Z,3.40
2018-07-19T07:23:26.451Z,3.43
2018-07-19T07:24:34.797Z,3.20
2018-07-19T07:25:51.150Z,3.17
2018-07-19T07:26:57.506Z,3.40
2018-07-19T07:28:03.638Z,4.10
2018-07-19T07:29:10.892Z,3.37
2018-07-19T07:30:17.020Z,3.53
2018-07-19T07:31:23.164Z,3.87
2018-07-19T07:32:29.241Z,3.70
2018-07-19T07:33:35.412Z,3.90
2018-07-19T07:34:41.724Z,4.03
2018-07-19T07:35:49.681Z,3.03
2018-07-19T07:36:56.010Z,3.43
2018-07-19T07:38:02.522Z,3.40
2018-07-19T07:39:12.622Z,3.70
2018-07-19T07:40:19.280Z,3.90
2018-07-19T07:41:25.323Z,3.67
2018-07-19T07:42:31.566Z,3.93
2018-07-19T07:43:37.603Z,3.77
2018-07-19T07:44:43.768Z,3.67
2018-07-19T07:45:50.262Z,3.40
2018-07-19T07:46:56.330Z,4.07
2018-07-19T07:48:02.286Z,3.90
2018-07-19T07:49:08.212Z,3.40
2018-07-19T07:50:14.109Z,3.50
2018-07-19T07:51:20.283Z,3.67
2018-07-19T07:52:27.968Z,3.57
2018-07-19T07:53:35.418Z,3.63
2018-07-19T07:54:41.653Z,3.90
2018-07-19T07:55:47.729Z,3.90
2018-07-19T07:56:54.048Z,3.20
2018-07-19T07:58:00.074Z,3.60
2018-07-19T07:59:07.090Z,3.73
2018-07-19T08:00:13.409Z,3.53
2018-07-19T08:01:25.317Z,3.77
2018-07-19T08:02:31.420Z,3.43
2018-07-19T08:03:42.667Z,3.43
2018-07-19T08:04:50.894Z,3.80
2018-07-19T08:05:57.964Z,3.00
2018-07-19T08:07:04.168Z,4.73
2018-07-19T08:08:10.556Z,4.53
2018-07-19T08:09:19.311Z,3.50
2018-07-19T08:10:26.644Z,3.43
2018-07-19T08:11:32.694Z,3.47
2018-07-19T08:12:38.970Z,3.37
2018-07-19T08:13:45.484Z,3.67
2018-07-19T08:14:52.288Z,3.80
2018-07-19T08:15:58.798Z,3.23
2018-07-19T08:17:05.719Z,3.47
2018-07-19T08:18:12.846Z,3.63
2018-07-19T08:19:19.346Z,3.20
2018-07-19T08:20:25.624Z,3.60
2018-07-19T08:21:32.412Z,3.70
2018-07-19T08:22:40.759Z,2.97
2018-07-19T08:23:47.404Z,3.40
2018-07-19T08:24:54.525Z,3.50
2018-07-19T08:26:00.544Z,2.90
2018-07-19T08:27:06.857Z,3.40
2018-07-19T08:28:14.985Z,3.47
2018-07-19T08:29:21.265Z,3.60
2018-07-19T08:30:28.218Z,3.43
2018-07-19T08:31:34.416Z,4.07
2018-07-19T08:32:41.168Z,3.90
2018-07-19T08:33:47.199Z,3.20
2018-07-19T08:34:53.412Z,3.70
2018-07-19T08:35:59.614Z,3.13
2018-07-19T08:37:05.886Z,4.00
2018-07-19T08:38:12.307Z,3.57
2018-07-19T08:39:18.497Z,3.53
2018-07-19T08:40:24.876Z,3.70
2018-07-19T08:41:30.951Z,4.13
2018-07-19T08:42:39.530Z,3.03
2018-07-19T08:43:48.564Z,3.50
2018-07-19T08:44:56.316Z,3.50
2018-07-19T08:46:04.159Z,3.77
2018-07-19T08:47:14.936Z,3.03
2018-07-19T08:48:21.061Z,3.43
2018-07-19T08:49:27.319Z,3.93
2018-07-19T08:50:33.433Z,3.53
2018-07-19T08:51:40.210Z,3.37
2018-07-19T08:52:48.164Z,3.60
2018-07-19T08:53:54.352Z,3.50
2018-07-19T08:55:01.541Z,3.33
2018-07-19T08:56:07.642Z,3.87
2018-07-19T08:57:15.069Z,3.63
2018-07-19T08:58:22.031Z,3.30
2018-07-19T08:59:29.038Z,3.60
2018-07-19T09:00:35.253Z,3.80
2018-07-19T09:01:46.906Z,3.20
2018-07-19T09:02:55.403Z,3.80
2018-07-19T09:04:02.381Z,3.73
2018-07-19T09:05:10.417Z,4.00
2018-07-19T09:06:16.580Z,3.60
2018-07-19T09:07:22.822Z,3.87
2018-07-19T09:08:32.718Z,3.93
2018-07-19T09:09:39.887Z,3.60
2018-07-19T09:10:46.373Z,3.90
2018-07-19T09:11:52.533Z,3.70
2018-07-19T09:12:59.522Z,3.60
2018-07-19T09:14:07.015Z,3.90
2018-07-19T09:15:14.058Z,3.60
2018-07-19T09:16:21.086Z,3.87
2018-07-19T09:17:27.144Z,3.30
2018-07-19T09:18:33.354Z,3.83
2018-07-19T09:19:39.490Z,3.33
2018-07-19T09:23:43.049Z,3.50
2018-07-19T09:24:49.342Z,3.90
2018-07-19T09:25:56.659Z,4.10
2018-07-19T09:27:02.935Z,3.83
2018-07-19T09:28:09.247Z,4.10
2018-07-19T09:29:15.735Z,4.00
2018-07-19T09:30:22.003Z,3.90
2018-07-19T09:31:29.260Z,3.97
2018-07-19T09:32:36.530Z,3.80
2018-07-19T09:33:42.705Z,3.73
2018-07-19T09:34:48.980Z,3.70
2018-07-19T09:35:55.337Z,3.77
2018-07-19T09:37:03.549Z,3.30
2018-07-19T09:38:10.819Z,3.90
2018-07-19T09:39:17.621Z,3.77
2018-07-19T09:40:23.860Z,4.00
2018-07-19T09:41:30.027Z,3.80
2018-07-19T09:42:37.723Z,4.10
2018-07-19T09:43:44.092Z,3.80
2018-07-19T09:44:51.027Z,4.00
2018-07-19T09:45:58.033Z,3.60
2018-07-19T09:47:04.316Z,4.30
2018-07-19T09:48:12.640Z,4.50
2018-07-19T09:49:21.231Z,3.93
2018-07-19T09:50:28.743Z,3.60
2018-07-19T09:51:35.232Z,3.70
2018-07-19T09:52:44.973Z,4.00
2018-07-19T09:53:51.288Z,3.70
2018-07-19T09:55:01.115Z,3.73
2018-07-19T09:56:07.471Z,3.80
2018-07-19T09:57:16.441Z,4.07
2018-07-19T09:58:24.853Z,3.70
2018-07-19T09:59:32.000Z,3.83
2018-07-19T10:00:44.207Z,3.90
2018-07-19T10:01:50.672Z,4.30
2018-07-19T10:02:56.929Z,4.00
2018-07-19T10:04:03.867Z,4.37
2018-07-19T10:05:10.109Z,3.97
2018-07-19T10:06:16.770Z,4.17
2018-07-19T10:07:23.344Z,3.87
2018-07-19T10:08:31.183Z,4.03
2018-07-19T10:09:39.531Z,4.57
2018-07-19T10:10:45.665Z,4.40
2018-07-19T10:11:52.950Z,4.00
2018-07-19T10:13:00.263Z,4.17
2018-07-19T10:14:07.391Z,3.70
2018-07-19T10:15:14.612Z,4.30
2018-07-19T10:16:22.320Z,3.80
2018-07-19T10:17:28.736Z,3.93
2018-07-19T10:18:35.956Z,3.80
2018-07-19T10:19:42.726Z,3.80
2018-07-19T10:20:51.649Z,4.83
2018-07-19T10:21:58.109Z,5.10
2018-07-19T10:23:04.485Z,3.90
2018-07-19T10:24:11.167Z,4.37
2018-07-19T10:25:18.481Z,4.13
2018-07-19T10:26:25.002Z,4.10
2018-07-19T10:27:32.979Z,3.93
2018-07-19T10:28:39.250Z,4.00
2018-07-19T10:29:47.913Z,4.03
2018-07-19T10:30:55.000Z,3.83
2018-07-19T10:32:02.079Z,4.00
2018-07-19T10:33:08.603Z,3.87
2018-07-19T10:34:15.020Z,4.17
2018-07-19T10:35:23.125Z,3.77
2018-07-19T10:36:29.600Z,4.10
2018-07-19T10:37:35.935Z,4.13
2018-07-19T10:38:42.112Z,3.60
2018-07-19T10:39:48.491Z,4.27
2018-07-19T10:40:55.541Z,4.00
2018-07-19T10:42:01.772Z,4.20
2018-07-19T10:43:08.067Z,4.10
2018-07-19T10:44:16.208Z,3.90
2018-07-19T10:45:22.626Z,4.10
2018-07-19T10:46:32.441Z,4.23
2018-07-19T10:47:38.655Z,4.30
2018-07-19T10:48:44.887Z,3.90
2018-07-19T10:49:53.860Z,4.30
2018-07-19T10:51:01.512Z,4.20
2018-07-19T10:52:08.845Z,5.70
2018-07-19T10:53:15.374Z,4.60
2018-07-19T10:54:21.653Z,4.30
2018-07-19T10:55:27.986Z,4.20
2018-07-19T10:56:34.511Z,4.10
2018-07-19T10:57:41.082Z,4.30
2018-07-19T10:58:47.863Z,4.17
2018-07-19T10:59:54.173Z,4.23
2018-07-19T11:01:00.466Z,4.63
2018-07-19T11:02:06.863Z,4.07
2018-07-19T11:03:15.571Z,4.50
2018-07-19T11:04:22.361Z,4.60
2018-07-19T11:05:29.568Z,4.07
2018-07-19T11:06:38.526Z,3.73
2018-07-19T11:07:45.190Z,3.90
2018-07-19T11:08:51.559Z,4.07
2018-07-19T11:09:57.844Z,3.93
2018-07-19T11:11:04.148Z,3.30
2018-07-19T11:12:18.243Z,4.13
2018-07-19T11:13:24.478Z,3.70
2018-07-19T11:14:35.243Z,3.70
2018-07-19T11:15:41.705Z,3.30
2018-07-19T11:16:49.174Z,4.00
2018-07-19T11:17:56.653Z,3.70
2018-07-19T11:19:02.749Z,3.90
2018-07-19T11:20:10.684Z,3.80
2018-07-19T11:21:17.027Z,4.27
2018-07-19T11:22:24.399Z,3.93
2018-07-19T11:23:32.133Z,3.53
2018-07-19T11:24:38.292Z,3.40
2018-07-19T11:25:44.572Z,3.80
2018-07-19T11:26:52.079Z,3.70
2018-07-19T11:27:58.375Z,3.37
2018-07-19T11:29:05.585Z,4.00
2018-07-19T11:30:12.133Z,3.07
2018-07-19T11:31:18.639Z,3.60
2018-07-19T11:32:27.184Z,4.70
2018-07-19T11:33:33.516Z,3.63
2018-07-19T11:34:40.726Z,4.13
2018-07-19T11:35:47.959Z,4.07
2018-07-19T11:36:57.283Z,4.30
2018-07-19T11:38:04.029Z,3.73
2018-07-19T11:39:11.811Z,3.60
2018-07-19T11:40:17.965Z,3.17
2018-07-19T11:41:25.185Z,3.30
2018-07-19T11:42:32.323Z,2.73
2018-07-19T11:43:38.524Z,3.73
2018-07-19T11:44:44.995Z,3.93
2018-07-19T11:45:52.151Z,4.03
2018-07-19T11:46:59.547Z,4.13
2018-07-19T11:48:06.109Z,3.90
2018-07-19T11:49:13.271Z,3.80
2018-07-19T11:50:20.479Z,3.10
2018-07-19T11:51:26.663Z,3.73
2018-07-19T11:52:33.103Z,4.10
2018-07-19T11:53:40.043Z,3.87
2018-07-19T11:54:46.590Z,4.13
2018-07-19T11:55:52.979Z,4.03
2018-07-19T11:56:59.143Z,3.67
2018-07-19T11:58:06.500Z,4.20
2018-07-19T11:59:17.300Z,3.87
2018-07-19T12:00:23.579Z,3.57
2018-07-19T12:01:29.901Z,4.00
2018-07-19T12:02:38.678Z,3.90
2018-07-19T12:03:47.425Z,3.90
2018-07-19T12:04:54.549Z,3.47
2018-07-19T12:06:00.789Z,4.40
2018-07-19T12:07:09.567Z,4.60
2018-07-19T12:08:15.746Z,4.23
2018-07-19T12:09:22.089Z,3.93
2018-07-19T12:10:28.341Z,3.67
2018-07-19T12:11:34.773Z,4.00
2018-07-19T12:12:46.143Z,4.37
2018-07-19T12:13:52.382Z,3.63
2018-07-19T12:15:00.537Z,4.10
2018-07-19T12:16:06.954Z,3.40
2018-07-19T12:17:13.605Z,3.90
2018-07-19T12:18:19.891Z,4.30
2018-07-19T12:19:27.441Z,4.23
2018-07-19T12:20:34.352Z,4.00
2018-07-19T12:21:41.469Z,4.03
2018-07-19T12:22:47.753Z,4.60
2018-07-19T12:23:53.845Z,3.80
2018-07-19T12:25:00.101Z,4.27
2018-07-19T12:26:06.291Z,4.70
2018-07-19T12:27:12.587Z,4.40
2018-07-19T12:28:18.943Z,4.10
2018-07-19T12:29:25.927Z,4.20
2018-07-19T12:30:31.895Z,4.37
2018-07-19T12:31:38.933Z,4.30
2018-07-19T12:32:45.239Z,4.20
2018-07-19T12:33:51.471Z,4.53
2018-07-19T12:34:59.346Z,4.53
2018-07-19T12:36:05.694Z,4.90
2018-07-19T12:37:12.967Z,4.20
2018-07-19T12:38:22.645Z,5.07
2018-07-19T12:39:30.326Z,4.00
2018-07-19T12:40:37.849Z,4.50
2018-07-19T12:41:44.033Z,4.43
2018-07-19T12:42:50.805Z,4.73
2018-07-19T12:43:58.395Z,4.10
2018-07-19T12:45:06.229Z,3.77
2018-07-19T12:46:13.613Z,4.17
2018-07-19T12:47:19.835Z,4.60
2018-07-19T12:48:26.866Z,4.93
2018-07-19T12:49:34.015Z,4.87
2018-07-19T12:50:42.391Z,4.17
2018-07-19T12:51:49.463Z,4.80
2018-07-19T12:52:55.781Z,4.50
2018-07-19T12:54:02.019Z,4.97
2018-07-19T12:55:08.439Z,4.37
2018-07-19T12:56:16.803Z,4.80
2018-07-19T12:57:25.329Z,5.33
2018-07-19T12:58:32.467Z,4.53
2018-07-19T12:59:39.607Z,5.13
2018-07-19T13:00:46.501Z,5.00
2018-07-19T13:01:52.892Z,4.57
2018-07-19T13:03:00.485Z,5.40
2018-07-19T13:04:07.747Z,4.63
2018-07-19T13:05:14.462Z,4.80
2018-07-19T13:06:20.873Z,4.53
2018-07-19T13:07:29.768Z,4.63
2018-07-19T13:08:36.889Z,4.67
2018-07-19T13:09:44.242Z,4.60
2018-07-19T13:10:52.191Z,4.50
2018-07-19T13:11:59.983Z,4.70
2018-07-19T13:13:07.222Z,4.40
2018-07-19T13:14:14.335Z,4.60
2018-07-19T13:15:22.089Z,4.90
2018-07-19T13:16:28.217Z,4.20
2018-07-19T13:17:35.751Z,4.17
2018-07-19T13:18:42.025Z,4.30
2018-07-19T13:19:48.809Z,4.77
2018-07-19T13:20:56.181Z,4.27
2018-07-19T13:22:02.627Z,4.60
2018-07-19T13:23:09.899Z,4.90
2018-07-19T13:24:16.879Z,4.17
2018-07-19T13:25:24.091Z,4.57
2018-07-19T13:26:37.643Z,4.57
2018-07-19T13:27:45.503Z,4.80
2018-07-19T13:28:52.469Z,4.73
2018-07-19T13:29:59.247Z,4.50
2018-07-19T13:31:06.411Z,4.50
2018-07-19T13:32:14.296Z,4.70
2018-07-19T13:33:22.656Z,4.60
2018-07-19T13:34:30.649Z,5.30
2018-07-19T13:35:36.843Z,4.57
2018-07-19T13:36:45.227Z,4.50
2018-07-19T13:37:51.454Z,4.87
2018-07-19T13:38:59.241Z,4.70
2018-07-19T13:40:06.204Z,4.90
2018-07-19T13:41:13.567Z,4.80
2018-07-19T13:42:22.950Z,5.40
2018-07-19T13:43:29.973Z,4.57
2018-07-19T13:44:37.373Z,4.40
2018-07-19T13:45:43.623Z,5.33
2018-07-19T13:46:49.936Z,5.20
2018-07-19T13:47:59.595Z,4.17
2018-07-19T13:49:06.807Z,4.63
2018-07-19T13:50:13.352Z,5.30
2018-07-19T13:51:19.567Z,4.93
2018-07-19T13:52:36.225Z,4.93
2018-07-19T13:53:52.427Z,5.13
2018-07-19T13:54:59.665Z,4.70
2018-07-19T13:56:08.302Z,4.43
2018-07-19T13:57:15.368Z,4.90
2018-07-19T13:58:25.397Z,5.00
2018-07-19T13:59:32.939Z,4.83
2018-07-19T14:00:39.527Z,4.90
2018-07-19T14:01:47.183Z,4.70
2018-07-19T14:02:55.104Z,4.33
2018-07-19T14:04:02.270Z,5.43
2018-07-19T14:05:09.163Z,5.20
2018-07-19T14:06:18.219Z,5.60
2018-07-19T14:07:26.228Z,4.40
2018-07-19T14:08:34.632Z,5.50
2018-07-19T14:09:45.255Z,5.20
2018-07-19T14:10:52.585Z,5.77
2018-07-19T14:11:59.021Z,5.73
2018-07-19T14:13:05.426Z,5.63
2018-07-19T14:14:12.397Z,5.33
2018-07-19T14:15:18.813Z,5.53
2018-07-19T14:16:25.213Z,5.53
2018-07-19T14:17:32.898Z,5.47
2018-07-19T14:18:41.466Z,5.80
2018-07-19T14:19:47.839Z,5.67
2018-07-19T14:20:54.068Z,5.40
2018-07-19T14:22:00.853Z,5.00
2018-07-19T14:23:07.375Z,5.07
2018-07-19T14:24:13.839Z,5.67
2018-07-19T14:25:21.141Z,5.47
2018-07-19T14:26:27.355Z,5.93
2018-07-19T14:27:36.002Z,5.53
2018-07-19T14:28:47.077Z,4.80
2018-07-19T14:29:53.969Z,5.50
2018-07-19T14:31:04.254Z,4.70
2018-07-19T14:32:15.315Z,5.77
2018-07-19T14:33:21.429Z,6.00
2018-07-19T14:34:28.741Z,4.90
2018-07-19T14:35:34.893Z,4.90
2018-07-19T14:36:47.019Z,5.20
2018-07-19T14:37:54.282Z,4.90
2018-07-19T14:39:01.310Z,5.03
2018-07-19T14:40:07.562Z,5.57
2018-07-19T14:41:14.010Z,6.07
2018-07-19T14:42:20.253Z,5.13
2018-07-19T14:43:27.589Z,5.83
2018-07-19T14:44:34.580Z,6.07
2018-07-19T14:45:40.902Z,5.43
2018-07-19T14:46:47.618Z,5.83
2018-07-19T14:47:55.994Z,6.20
2018-07-19T14:49:02.288Z,5.87
2018-07-19T14:50:08.911Z,5.53
2018-07-19T14:51:16.771Z,5.27
2018-07-19T14:52:24.917Z,5.17
2018-07-19T14:53:31.346Z,4.97
2018-07-19T14:54:37.662Z,5.90
2018-07-19T14:55:44.757Z,6.50
2018-07-19T14:56:58.145Z,4.77
2018-07-19T14:58:04.419Z,6.20
2018-07-19T14:59:11.613Z,6.10
2018-07-19T15:00:17.845Z,5.80
2018-07-19T15:01:24.515Z,6.00
2018-07-19T15:02:32.920Z,5.27
2018-07-19T15:03:39.567Z,5.53
2018-07-19T15:04:46.310Z,5.90
2018-07-19T15:05:56.561Z,6.80
2018-07-19T15:07:03.143Z,6.17
2018-07-19T15:08:10.906Z,6.30
2018-07-19T15:09:17.234Z,5.70
2018-07-19T15:10:23.707Z,6.20
2018-07-19T15:11:31.623Z,5.90
2018-07-19T15:12:41.124Z,5.80
2018-07-19T15:13:48.313Z,6.00
2018-07-19T15:14:56.539Z,5.73
2018-07-19T15:16:05.215Z,6.53
2018-07-19T15:17:11.438Z,6.00
2018-07-19T15:18:18.216Z,5.80
2018-07-19T15:19:24.461Z,6.30
2018-07-19T15:20:33.793Z,6.93
2018-07-19T15:21:42.100Z,7.20
2018-07-19T15:22:48.411Z,6.20
2018-07-19T15:23:54.732Z,5.83
2018-07-19T15:25:00.913Z,6.80
2018-07-19T15:26:13.173Z,6.50
2018-07-19T15:27:19.487Z,6.03
2018-07-19T15:28:25.827Z,7.43
2018-07-19T15:29:32.106Z,6.47
2018-07-19T15:30:40.067Z,6.47
2018-07-19T15:31:46.358Z,6.37
2018-07-19T15:32:52.489Z,6.20
2018-07-19T15:33:58.767Z,6.67
2018-07-19T15:35:05.079Z,6.67
2018-07-19T15:36:12.405Z,6.50
2018-07-19T15:37:19.250Z,6.43
2018-07-19T15:38:26.749Z,6.73
2018-07-19T15:39:33.120Z,6.33
2018-07-19T15:40:39.359Z,6.27
2018-07-19T15:41:45.445Z,6.83
2018-07-19T15:42:54.598Z,6.30
2018-07-19T15:44:01.447Z,6.10
2018-07-19T15:45:08.471Z,6.50
2018-07-19T15:46:14.817Z,6.53
2018-07-19T15:47:21.641Z,6.40
2018-07-19T15:48:29.659Z,6.10
2018-07-19T15:49:36.804Z,6.30
2018-07-19T15:50:43.016Z,6.50
2018-07-19T15:51:50.742Z,6.70
2018-07-19T15:53:00.016Z,7.23
2018-07-19T15:54:08.471Z,6.97
2018-07-19T15:55:15.358Z,6.30
2018-07-19T15:56:22.989Z,6.80
2018-07-19T15:57:29.303Z,6.40
2018-07-19T15:58:37.387Z,6.20
2018-07-19T15:59:43.629Z,7.43
2018-07-19T16:00:49.755Z,6.10
2018-07-19T16:01:56.288Z,6.33
2018-07-19T16:03:05.375Z,6.03
2018-07-19T16:04:13.366Z,6.30
2018-07-19T16:05:22.975Z,5.90
2018-07-19T16:06:32.670Z,6.63
2018-07-19T16:07:38.991Z,6.53
2018-07-19T16:08:45.425Z,6.57
2018-07-19T16:09:51.931Z,6.30
2018-07-19T16:11:00.595Z,6.17
2018-07-19T16:12:07.327Z,7.40
2018-07-19T16:13:13.617Z,6.53
2018-07-19T16:14:21.473Z,6.93
2018-07-19T16:15:28.682Z,6.83
2018-07-19T16:16:35.166Z,7.07
2018-07-19T16:17:43.127Z,6.70
2018-07-19T16:18:50.557Z,6.50
2018-07-19T16:19:56.912Z,7.03
2018-07-19T16:21:04.162Z,6.80
2018-07-19T16:22:12.326Z,6.20
2018-07-19T16:23:18.507Z,6.57
2018-07-19T16:24:26.174Z,7.30
2018-07-19T16:25:35.961Z,7.00
2018-07-19T16:26:43.614Z,6.90
2018-07-19T16:27:51.308Z,6.73
2018-07-19T16:28:59.269Z,6.57
2018-07-19T16:30:06.146Z,6.50
2018-07-19T16:31:12.528Z,6.07
2018-07-19T16:32:19.628Z,7.13
2018-07-19T16:33:26.112Z,7.10
2018-07-19T16:34:33.788Z,6.30
2018-07-19T16:35:40.820Z,6.40
2018-07-19T16:36:47.190Z,7.07
2018-07-19T16:37:53.756Z,6.40
2018-07-19T16:39:01.366Z,6.53
2018-07-19T16:40:08.391Z,6.37
2018-07-19T16:41:16.558Z,6.63
2018-07-19T16:42:24.066Z,6.20
2018-07-19T16:43:30.518Z,6.00
2018-07-19T16:44:38.283Z,6.37
2018-07-19T16:45:44.553Z,6.97
2018-07-19T16:46:53.756Z,6.30
2018-07-19T16:48:05.794Z,7.00
2018-07-19T16:49:12.628Z,6.97
2018-07-19T16:50:18.696Z,6.50
2018-07-19T16:51:26.805Z,6.60
2018-07-19T16:52:34.028Z,6.40
2018-07-19T16:53:44.624Z,5.83
2018-07-19T16:55:01.683Z,6.83
2018-07-19T16:56:08.053Z,6.40
2018-07-19T16:57:17.466Z,6.57
2018-07-19T16:58:33.159Z,6.07
2018-07-19T16:59:42.667Z,6.57
2018-07-19T17:00:48.735Z,6.07
2018-07-19T17:02:05.348Z,7.60
2018-07-19T17:03:11.592Z,6.60
2018-07-19T17:04:18.329Z,6.80
2018-07-19T17:05:24.492Z,6.20
2018-07-19T17:06:30.609Z,6.40
2018-07-19T17:07:36.678Z,6.70
2018-07-19T17:08:42.781Z,5.67
2018-07-19T17:09:49.066Z,6.67
2018-07-19T17:10:55.152Z,6.33
2018-07-19T17:12:01.378Z,6.70
2018-07-19T17:13:07.598Z,6.93
2018-07-19T17:14:14.417Z,6.27
2018-07-19T17:15:20.313Z,6.20
2018-07-19T17:16:26.712Z,6.10
2018-07-19T17:17:32.764Z,6.10
2018-07-19T17:18:40.438Z,6.73
2018-07-19T17:19:46.538Z,6.30
2018-07-19T17:20:52.527Z,6.67
2018-07-19T17:21:58.595Z,6.00
2018-07-19T17:23:04.665Z,6.10
2018-07-19T17:24:10.668Z,5.80
2018-07-19T17:25:17.382Z,5.93
2018-07-19T17:26:24.126Z,6.40
2018-07-19T17:27:33.468Z,5.70
2018-07-19T17:28:41.218Z,6.47
2018-07-19T17:29:50.984Z,6.10
2018-07-19T17:30:58.112Z,5.87
2018-07-19T17:32:07.085Z,6.20
2018-07-19T17:33:15.629Z,5.73
2018-07-19T17:34:23.573Z,5.73
2018-07-19T17:35:31.450Z,5.97
2018-07-19T17:36:38.320Z,5.33
2018-07-19T17:37:44.457Z,5.90
2018-07-19T17:38:50.924Z,6.20
2018-07-19T17:39:59.853Z,6.07
2018-07-19T17:41:06.727Z,6.10
2018-07-19T17:42:14.797Z,6.07
2018-07-19T17:43:22.452Z,5.90
2018-07-19T17:44:28.553Z,5.70
2018-07-19T17:45:34.537Z,6.23
2018-07-19T17:46:40.495Z,6.70
2018-07-19T17:47:46.453Z,5.40
2018-07-19T17:48:54.421Z,5.60
2018-07-19T17:50:00.735Z,5.53
2018-07-19T17:51:07.015Z,6.10
2018-07-19T17:52:13.217Z,5.83
2018-07-19T17:53:19.493Z,5.70
2018-07-19T17:54:26.811Z,5.70
2018-07-19T17:55:34.630Z,5.50
2018-07-19T17:56:42.582Z,5.80
2018-07-19T17:57:48.829Z,6.17
2018-07-19T17:58:55.467Z,5.70
2018-07-19T18:00:01.556Z,5.83
2018-07-19T18:01:08.659Z,5.80
2018-07-19T18:02:16.169Z,5.40
2018-07-19T18:03:22.409Z,5.37
2018-07-19T18:04:30.038Z,5.60
2018-07-19T18:05:37.341Z,5.87
2018-07-19T18:06:43.477Z,6.00
2018-07-19T18:07:50.573Z,6.17
2018-07-19T18:08:56.680Z,5.70
2018-07-19T18:10:04.090Z,6.23
2018-07-19T18:11:11.703Z,4.73
2018-07-19T18:12:18.763Z,5.30
2018-07-19T18:13:27.815Z,5.20
2018-07-19T18:14:34.101Z,5.10
2018-07-19T18:15:41.803Z,5.60
2018-07-19T18:16:49.449Z,5.93
2018-07-19T18:17:56.315Z,6.60
2018-07-19T18:19:02.979Z,5.27
2018-07-19T18:20:09.170Z,6.40
2018-07-19T18:21:16.001Z,6.80
2018-07-19T18:22:22.762Z,5.57
2018-07-19T18:23:30.421Z,5.60
2018-07-19T18:24:36.909Z,5.30
2018-07-19T18:25:43.317Z,4.97
2018-07-19T18:26:50.191Z,4.60
2018-07-19T18:27:57.941Z,4.73
2018-07-19T18:29:04.251Z,5.30
2018-07-19T18:30:11.517Z,5.30
2018-07-19T18:31:17.750Z,6.83
2018-07-19T18:32:23.833Z,5.20
2018-07-19T18:33:30.103Z,5.80
2018-07-19T18:34:37.769Z,5.17
2018-07-19T18:35:46.075Z,6.23
2018-07-19T18:36:52.718Z,6.00
2018-07-19T18:37:59.367Z,5.50
2018-07-19T18:39:08.569Z,4.80
2018-07-19T18:40:16.097Z,5.47
2018-07-19T18:41:23.229Z,5.50
2018-07-19T18:42:30.345Z,5.53
2018-07-19T18:43:36.882Z,5.00
2018-07-19T18:44:43.255Z,5.20
2018-07-19T18:45:49.443Z,5.00
2018-07-19T18:46:57.190Z,4.97
2018-07-19T18:48:04.273Z,4.70
2018-07-19T18:49:11.437Z,5.17
2018-07-19T18:50:18.955Z,5.10
2018-07-19T18:51:26.087Z,5.13
2018-07-19T18:52:34.374Z,5.13
2018-07-19T18:53:41.127Z,5.00
2018-07-19T18:54:50.795Z,5.00
2018-07-19T18:55:58.383Z,4.80
2018-07-19T18:57:05.557Z,4.67
2018-07-19T18:58:13.271Z,4.50
2018-07-19T18:59:19.523Z,5.70
2018-07-19T19:00:26.177Z,6.47
2018-07-19T19:01:33.495Z,5.40
2018-07-19T19:02:41.409Z,4.60
2018-07-19T19:03:48.555Z,5.47
2018-07-19T19:04:56.630Z,5.87
2018-07-19T19:06:03.555Z,5.17
2018-07-19T19:07:09.761Z,5.00
2018-07-19T19:08:18.330Z,5.20
2018-07-19T19:09:25.653Z,4.50
2018-07-19T19:10:34.981Z,4.67
2018-07-19T19:11:42.359Z,5.50
2018-07-19T19:12:48.772Z,5.00
2018-07-19T19:13:56.499Z,4.63
2018-07-19T19:15:04.425Z,5.10
2018-07-19T19:16:11.938Z,4.90
2018-07-19T19:17:18.673Z,5.20
2018-07-19T19:18:26.823Z,5.10
2018-07-19T19:19:37.005Z,5.07
2018-07-19T19:20:45.286Z,4.80
2018-07-19T19:21:51.967Z,5.10
2018-07-19T19:22:59.437Z,4.60
2018-07-19T19:24:06.514Z,4.60
2018-07-19T19:25:14.036Z,5.10
2018-07-19T19:26:20.462Z,5.07
2018-07-19T19:27:27.938Z,5.63
2018-07-19T19:28:34.288Z,5.07
2018-07-19T19:29:45.859Z,5.10
2018-07-19T19:30:55.358Z,4.50
2018-07-19T19:32:02.661Z,5.30
2018-07-19T19:33:08.955Z,5.40
2018-07-19T19:34:16.385Z,5.47
2018-07-19T19:35:22.606Z,4.80
2018-07-19T19:36:30.361Z,5.40
2018-07-19T19:37:36.574Z,5.33
2018-07-19T19:38:48.247Z,4.97
2018-07-19T19:39:54.758Z,5.23
2018-07-19T19:41:02.980Z,6.20
2018-07-19T19:42:09.133Z,5.30
2018-07-19T19:43:15.369Z,5.00
2018-07-19T19:44:26.635Z,4.97
2018-07-19T19:45:38.161Z,5.50
2018-07-19T19:46:44.845Z,4.93
2018-07-19T19:47:53.409Z,4.60
2018-07-19T19:49:01.644Z,4.73
2018-07-19T19:50:09.832Z,5.23
2018-07-19T19:51:17.049Z,5.47
2018-07-19T19:52:23.623Z,5.70